Time;durP1;ratioP1;P1;durP2;ratioP2;P2;SDS_P1;SDS_P2;PMS_P1;PMS_P2;Temp;Humidity;BMP_temperature;BMP_pressure;BME280_temperature;BME280_humidity;BME280_pressure;Samples;Min_cycle;Max_cycle;Signal;HPM_P1;HPM_P2
2022/10/13 00:03:01;;;;;;;6.70;3.15;;;11.80;99.90;;;;;;20677052;28;20409;-81
2022/10/13 00:13:02;;;;;;;5.38;3.03;;;11.80;99.90;;;;;;20677724;28;20057;-81
2022/10/13 00:23:03;;;;;;;4.25;2.70;;;11.70;99.90;;;;;;20665056;28;20484;-82
2022/10/13 00:33:05;;;;;;;6.70;3.17;;;11.70;99.90;;;;;;20665941;28;20512;-81
2022/10/13 00:43:15;;;;;;;7.65;3.35;;;11.80;99.90;;;;;;20652083;28;20530;-82
2022/10/13 00:53:18;;;;;;;11.23;4.47;;;11.90;99.90;;;;;;20639985;28;20038;-82
2022/10/13 01:03:21;;;;;;;6.03;4.40;;;11.90;99.90;;;;;;20650577;28;20351;-80
2022/10/13 01:14:07;;;;;;;3.88;2.72;;;11.80;99.90;;;;;;20647981;28;20039;-80
2022/10/13 01:24:37;;;;;;;6.68;3.35;;;11.90;99.90;;;;;;20618693;28;20052;-79
2022/10/13 01:34:51;;;;;;;4.32;2.65;;;11.90;99.90;;;;;;20653048;28;20042;-80
2022/10/13 01:45:00;;;;;;;8.40;3.70;;;11.90;99.90;;;;;;20694006;28;20374;-80
2022/10/13 01:55:08;;;;;;;8.35;4.15;;;12.10;99.90;;;;;;20660422;28;20497;-80
2022/10/13 02:05:28;;;;;;;7.68;4.15;;;12.00;99.90;;;;;;20659174;28;20037;-80
2022/10/13 02:15:42;;;;;;;7.15;3.58;;;12.00;99.90;;;;;;20672548;28;20042;-80
2022/10/13 02:25:44;;;;;;;6.45;4.13;;;11.90;99.90;;;;;;20668002;28;20696;-80
2022/10/13 02:35:45;;;;;;;6.95;3.30;;;11.80;99.90;;;;;;20680263;28;20112;-80
2022/10/13 02:45:46;;;;;;;5.88;3.67;;;11.70;99.90;;;;;;20675662;28;20034;-80
2022/10/13 02:55:47;;;;;;;8.18;3.65;;;11.60;99.90;;;;;;20677674;28;20053;-81
2022/10/13 03:05:48;;;;;;;9.15;4.85;;;11.50;99.90;;;;;;20675816;28;20584;-80
2022/10/13 03:15:49;;;;;;;11.23;5.10;;;11.50;99.90;;;;;;20684948;28;20057;-80
2022/10/13 03:25:50;;;;;;;6.60;4.13;;;11.50;99.90;;;;;;20667010;28;20494;-80
2022/10/13 03:35:51;;;;;;;6.63;4.25;;;11.50;99.90;;;;;;20658013;28;20038;-80
2022/10/13 03:45:54;;;;;;;6.60;4.13;;;11.50;99.90;;;;;;20689265;28;20038;-80
2022/10/13 03:55:55;;;;;;;7.50;4.03;;;11.50;99.90;;;;;;20721216;28;20140;-80
2022/10/13 04:06:01;;;;;;;7.13;3.78;;;11.60;99.90;;;;;;20703246;28;20038;-80
2022/10/13 04:16:14;;;;;;;8.48;3.88;;;11.70;99.90;;;;;;20682126;28;20826;-81
2022/10/13 04:26:20;;;;;;;6.50;3.38;;;11.70;99.90;;;;;;20672082;28;20042;-80
2022/10/13 04:36:22;;;;;;;6.82;3.53;;;11.70;99.90;;;;;;20682367;28;20038;-80
2022/10/13 04:46:25;;;;;;;5.35;3.42;;;11.90;99.90;;;;;;20683223;28;20038;-80
2022/10/13 04:56:27;;;;;;;8.43;4.22;;;12.00;99.90;;;;;;20671437;28;20096;-80
2022/10/13 05:06:31;;;;;;;8.18;3.85;;;12.00;99.90;;;;;;20668480;28;20046;-81
2022/10/13 05:16:32;;;;;;;14.32;5.38;;;12.00;99.90;;;;;;20681276;28;20193;-80
2022/10/13 05:26:34;;;;;;;7.07;4.25;;;12.00;99.90;;;;;;20659106;28;20042;-80
2022/10/13 05:36:35;;;;;;;11.35;4.20;;;12.00;99.90;;;;;;20631998;28;20050;-80
2022/10/13 05:46:36;;;;;;;9.35;4.25;;;12.00;99.90;;;;;;20649039;28;20041;-80
2022/10/13 05:56:51;;;;;;;7.85;4.72;;;12.10;99.90;;;;;;20625562;28;20144;-81
2022/10/13 06:06:52;;;;;;;6.82;4.32;;;12.10;99.90;;;;;;20603981;28;21602;-81
2022/10/13 06:16:53;;;;;;;7.97;4.00;;;12.00;99.90;;;;;;20632959;28;20069;-80
2022/10/13 06:26:54;;;;;;;10.82;5.82;;;12.00;99.90;;;;;;20635537;28;20037;-81
2022/10/13 06:36:55;;;;;;;9.23;4.55;;;12.10;99.90;;;;;;20652232;28;20045;-80
2022/10/13 06:46:56;;;;;;;10.68;5.80;;;12.10;99.90;;;;;;20640061;28;20042;-81
2022/10/13 06:56:57;;;;;;;5.65;3.88;;;12.20;99.90;;;;;;20628649;28;20045;-80
2022/10/13 07:06:58;;;;;;;8.05;4.50;;;12.20;99.90;;;;;;20636547;28;20033;-80
2022/10/13 07:16:59;;;;;;;12.80;6.05;;;12.30;99.90;;;;;;20673361;28;20037;-80
2022/10/13 07:27:00;;;;;;;9.93;5.10;;;12.40;99.90;;;;;;20669598;28;25158;-80
2022/10/13 07:37:01;;;;;;;9.73;4.75;;;12.40;99.90;;;;;;20678910;28;20054;-80
2022/10/13 07:47:02;;;;;;;10.68;6.70;;;12.50;99.90;;;;;;20681709;28;20049;-80
2022/10/13 07:57:03;;;;;;;11.68;7.15;;;12.60;99.90;;;;;;20666062;28;20050;-80
2022/10/13 08:07:05;;;;;;;15.98;6.38;;;12.70;99.90;;;;;;20662518;28;20085;-80
2022/10/13 08:17:06;;;;;;;13.57;6.88;;;12.80;99.90;;;;;;20662893;28;20111;-79
2022/10/13 08:27:11;;;;;;;12.70;6.32;;;13.00;99.90;;;;;;20660328;28;20512;-79
2022/10/13 08:37:18;;;;;;;19.73;8.73;;;13.10;99.90;;;;;;20654488;28;20037;-80
2022/10/13 08:47:26;;;;;;;9.98;5.60;;;13.30;99.90;;;;;;20660034;28;20041;-80
2022/10/13 08:57:27;;;;;;;9.68;6.90;;;13.50;99.90;;;;;;20678186;28;20099;-80
2022/10/13 09:07:34;;;;;;;13.27;6.15;;;13.60;99.90;;;;;;20660365;28;20528;-79
2022/10/13 09:17:37;;;;;;;9.75;5.70;;;13.60;99.90;;;;;;20631932;28;20112;-80
2022/10/13 09:27:55;;;;;;;12.98;4.90;;;13.60;99.90;;;;;;20644343;28;20062;-79
2022/10/13 09:38:16;;;;;;;7.70;4.97;;;13.70;99.90;;;;;;20670215;28;20696;-80
2022/10/13 09:48:22;;;;;;;6.55;4.30;;;13.70;99.90;;;;;;20657085;28;20653;-80
2022/10/13 09:58:29;;;;;;;7.07;4.60;;;13.80;99.90;;;;;;20658086;28;20555;-80
2022/10/13 10:08:40;;;;;;;8.60;4.75;;;14.10;99.90;;;;;;20671542;28;20120;-80
2022/10/13 10:18:48;;;;;;;9.48;3.95;;;14.20;99.90;;;;;;20650750;28;20507;-80
2022/10/13 10:28:58;;;;;;;8.35;5.07;;;14.30;99.90;;;;;;20634399;28;20682;-80
2022/10/13 10:39:25;;;;;;;14.20;5.22;;;14.40;99.90;;;;;;20661086;28;20096;-80
2022/10/13 10:49:34;;;;;;;9.43;4.93;;;14.80;99.90;;;;;;20661427;28;20107;-80
2022/10/13 11:00:00;;;;;;;14.52;5.13;;;15.20;99.90;;;;;;20671859;28;20050;-85
2022/10/13 11:10:13;;;;;;;8.23;3.80;;;14.90;99.90;;;;;;20669697;28;20447;-82
2022/10/13 11:20:17;;;;;;;6.88;3.70;;;14.80;99.90;;;;;;20648653;28;20042;-80
2022/10/13 11:30:46;;;;;;;6.43;3.40;;;14.70;99.90;;;;;;20668521;28;20111;-80
2022/10/13 11:41:11;;;;;;;6.72;3.95;;;14.50;99.90;;;;;;20651471;28;21529;-80
2022/10/13 11:51:47;;;;;;;6.10;3.05;;;14.70;99.90;;;;;;20676661;28;20383;-80
2022/10/13 12:02:05;;;;;;;7.30;4.43;;;14.90;99.90;;;;;;20598186;28;20662;-81
2022/10/13 12:12:13;;;;;;;;;;;14.90;99.90;;;;;;20574281;28;20695;-81
2022/10/13 12:22:15;;;;;;;8.43;3.90;;;14.90;99.90;;;;;;20553366;28;19980;-81
2022/10/13 12:32:21;;;;;;;7.80;4.53;;;14.90;99.90;;;;;;20561371;28;20065;-81
2022/10/13 12:42:34;;;;;;;10.02;4.30;;;14.70;99.90;;;;;;20565048;28;20136;-81
2022/10/13 12:52:35;;;;;;;8.13;4.45;;;14.60;99.90;;;;;;20556802;28;20505;-81
2022/10/13 13:02:37;;;;;;;6.90;3.53;;;14.70;99.90;;;;;;20637901;28;20513;-81
2022/10/13 13:12:38;;;;;;;7.57;4.75;;;14.80;99.90;;;;;;20621647;28;21002;-80
2022/10/13 13:22:39;;;;;;;7.40;4.38;;;14.80;99.90;;;;;;20629717;28;20075;-81
2022/10/13 13:32:40;;;;;;;5.63;3.00;;;14.70;99.90;;;;;;20623132;28;20049;-81
2022/10/13 13:42:41;;;;;;;8.45;4.15;;;14.60;99.90;;;;;;20641386;28;20077;-81
2022/10/13 13:52:42;;;;;;;3.20;1.60;;;14.50;99.90;;;;;;20615399;28;20034;-81
2022/10/13 14:02:44;;;;;;;4.25;2.13;;;14.40;99.90;;;;;;20563283;28;20122;-81
2022/10/13 14:12:46;;;;;;;2.65;1.50;;;14.00;99.90;;;;;;20546182;28;20104;-82
2022/10/13 14:22:47;;;;;;;6.72;2.05;;;13.80;99.90;;;;;;20548396;28;20164;-80
2022/10/13 14:32:48;;;;;;;3.83;2.35;;;13.70;99.90;;;;;;20542105;28;20116;-81
2022/10/13 14:42:49;;;;;;;2.30;1.63;;;13.50;99.90;;;;;;20543034;28;20051;-81
2022/10/13 14:52:50;;;;;;;2.08;1.00;;;13.40;99.90;;;;;;20558970;28;20355;-81
2022/10/13 15:02:51;;;;;;;4.40;1.95;;;13.50;99.90;;;;;;20636498;28;20073;-81
2022/10/13 15:12:55;;;;;;;4.43;1.67;;;13.50;99.90;;;;;;20627057;28;20061;-81
2022/10/13 15:22:56;;;;;;;3.67;2.08;;;13.50;99.90;;;;;;20630022;28;20137;-82
2022/10/13 15:32:57;;;;;;;3.05;1.90;;;13.40;99.90;;;;;;20633187;28;21462;-82
2022/10/13 15:42:59;;;;;;;4.75;2.08;;;13.30;99.90;;;;;;20669487;28;20035;-85
2022/10/13 15:53:00;;;;;;;1.45;0.77;;;13.20;99.90;;;;;;20680116;28;21714;-80
2022/10/13 16:03:03;;;;;;;2.00;1.00;;;13.10;99.90;;;;;;20699373;28;20058;-82
2022/10/13 16:13:04;;;;;;;0.88;0.55;;;13.00;99.90;;;;;;20640538;28;20077;-80
2022/10/13 16:23:05;;;;;;;0.95;0.38;;;12.90;99.90;;;;;;20664587;28;20051;-81
2022/10/13 16:33:06;;;;;;;0.90;0.30;;;12.90;99.90;;;;;;20652857;28;20034;-81
2022/10/13 16:43:07;;;;;;;1.05;0.32;;;12.90;99.90;;;;;;20661579;28;20060;-81
2022/10/13 16:53:09;;;;;;;1.67;0.45;;;12.90;99.90;;;;;;20654253;28;20553;-82
2022/10/13 17:03:10;;;;;;;1.88;0.52;;;12.70;99.90;;;;;;20657714;28;20099;-81
2022/10/13 17:13:11;;;;;;;2.75;1.02;;;12.60;99.90;;;;;;20662668;28;20044;-81
2022/10/13 17:23:15;;;;;;;0.95;0.68;;;12.50;99.90;;;;;;20665196;28;20038;-81
2022/10/13 17:33:16;;;;;;;2.25;1.25;;;12.40;99.90;;;;;;20651642;28;20033;-81
2022/10/13 17:43:18;;;;;;;4.28;1.52;;;12.40;99.90;;;;;;20659922;28;20064;-81
2022/10/13 17:53:18;;;;;;;3.47;1.98;;;12.40;99.90;;;;;;20654546;28;20453;-81
2022/10/13 18:03:20;;;;;;;4.38;2.08;;;12.20;99.90;;;;;;20648165;28;20451;-81
2022/10/13 18:13:21;;;;;;;4.20;1.88;;;12.10;99.90;;;;;;20650919;28;20096;-82
2022/10/13 18:23:22;;;;;;;4.82;2.80;;;11.90;99.90;;;;;;20655377;28;20111;-81
2022/10/13 18:33:23;;;;;;;4.85;2.83;;;11.80;99.90;;;;;;20672319;28;20498;-81
2022/10/13 18:43:24;;;;;;;4.95;2.97;;;11.70;99.90;;;;;;20656141;28;20379;-81
2022/10/13 18:53:25;;;;;;;7.68;3.60;;;11.50;99.90;;;;;;20635999;28;20042;-81
2022/10/13 19:03:26;;;;;;;6.43;4.40;;;11.40;99.90;;;;;;20676328;28;20034;-81
2022/10/13 19:13:27;;;;;;;5.70;3.97;;;11.40;99.90;;;;;;20678752;28;20073;-81
2022/10/13 19:23:28;;;;;;;8.65;3.40;;;11.20;99.90;;;;;;20685764;28;20041;-81
2022/10/13 19:33:29;;;;;;;6.45;3.80;;;11.00;99.90;;;;;;20710083;28;20041;-81
2022/10/13 19:43:31;;;;;;;8.10;3.78;;;10.90;99.90;;;;;;20696925;28;20038;-81
2022/10/13 19:53:33;;;;;;;7.70;4.05;;;10.70;99.90;;;;;;20698946;28;20046;-81
2022/10/13 20:03:34;;;;;;;6.57;3.60;;;10.50;99.90;;;;;;20713337;28;20046;-81
2022/10/13 20:13:36;;;;;;;5.32;3.45;;;10.40;99.90;;;;;;20718993;28;20030;-81
2022/10/13 20:23:39;;;;;;;12.20;4.70;;;10.30;99.90;;;;;;20723585;28;20042;-81
2022/10/13 20:33:41;;;;;;;10.32;5.90;;;10.20;99.90;;;;;;20706075;28;20050;-81
2022/10/13 20:43:42;;;;;;;5.15;4.05;;;10.10;99.90;;;;;;20722214;28;20441;-81
2022/10/13 20:53:45;;;;;;;7.88;4.55;;;9.90;99.90;;;;;;20722103;28;20650;-80
2022/10/13 21:03:52;;;;;;;7.70;4.78;;;9.80;99.90;;;;;;20712701;28;20088;-81
2022/10/13 21:13:54;;;;;;;5.75;4.22;;;9.80;99.90;;;;;;20702476;28;20039;-81
2022/10/13 21:23:57;;;;;;;5.88;4.72;;;9.80;99.90;;;;;;20701118;28;20045;-81
2022/10/13 21:33:58;;;;;;;11.02;5.63;;;9.70;99.90;;;;;;20697189;28;20042;-80
2022/10/13 21:44:00;;;;;;;13.80;6.97;;;9.70;99.90;;;;;;20685246;28;20033;-80
2022/10/13 21:54:04;;;;;;;10.30;5.60;;;9.60;99.90;;;;;;20689981;28;21575;-81
2022/10/13 22:04:06;;;;;;;5.97;3.88;;;9.60;99.90;;;;;;20708739;28;20069;-81
2022/10/13 22:14:07;;;;;;;9.60;5.45;;;9.60;99.90;;;;;;20687269;28;20026;-81
2022/10/13 22:24:14;;;;;;;15.10;6.35;;;9.70;99.90;;;;;;20691468;28;20449;-80
2022/10/13 22:34:16;;;;;;;8.63;6.03;;;9.70;99.90;;;;;;20689516;28;20038;-81
2022/10/13 22:44:17;;;;;;;8.90;4.57;;;9.80;99.90;;;;;;20696521;28;21062;-81
2022/10/13 22:54:18;;;;;;;9.80;6.05;;;9.70;99.90;;;;;;20695561;28;20037;-81
2022/10/13 23:04:19;;;;;;;8.30;4.75;;;9.70;99.90;;;;;;20682360;28;20049;-81
2022/10/13 23:14:20;;;;;;;5.93;4.30;;;9.70;99.90;;;;;;20685960;28;20026;-81
2022/10/13 23:24:21;;;;;;;10.40;6.35;;;9.70;99.90;;;;;;20684436;28;20037;-81
2022/10/13 23:34:22;;;;;;;8.55;5.15;;;9.60;99.90;;;;;;20686867;28;20104;-81
2022/10/13 23:44:23;;;;;;;6.70;4.88;;;9.50;99.90;;;;;;20683197;28;20041;-81
2022/10/13 23:54:24;;;;;;;5.43;3.47;;;9.50;99.90;;;;;;20709781;28;20037;-80
